sensor_id;sensor_type;location;lat;lon;timestamp;temperature;humidity
33811;DHT22;20119;48.334;16.206;2022-09-03T00:00:46;11.10;99.90
33811;DHT22;20119;48.334;16.206;2022-09-03T00:03:19;11.00;99.90
33811;DHT22;20119;48.334;16.206;2022-09-03T00:05:53;10.90;99.90
33811;DHT22;20119;48.334;16.206;2022-09-03T00:08:26;11.00;99.90
33811;DHT22;20119;48.334;16.206;2022-09-03T00:11:02;10.90;99.90
33811;DHT22;20119;48.334;16.206;2022-09-03T00:13:36;10.90;99.90
33811;DHT22;20119;48.334;16.206;2022-09-03T00:16:10;11.00;99.90
33811;DHT22;20119;48.334;16.206;2022-09-03T00:18:43;10.90;99.90
33811;DHT22;20119;48.334;16.206;2022-09-03T00:21:14;10.90;99.90
33811;DHT22;20119;48.334;16.206;2022-09-03T00:23:45;10.90;99.90
33811;DHT22;20119;48.334;16.206;2022-09-03T00:26:23;10.90;99.90
33811;DHT22;20119;48.334;16.206;2022-09-03T00:28:57;10.80;99.90
33811;DHT22;20119;48.334;16.206;2022-09-03T00:31:32;10.90;99.90
33811;DHT22;20119;48.334;16.206;2022-09-03T00:34:06;10.80;99.90
33811;DHT22;20119;48.334;16.206;2022-09-03T00:36:39;10.70;99.90
33811;DHT22;20119;48.334;16.206;2022-09-03T00:39:09;10.80;99.90
33811;DHT22;20119;48.334;16.206;2022-09-03T00:41:43;10.60;99.90
33811;DHT22;20119;48.334;16.206;2022-09-03T00:44:32;10.60;99.90
33811;DHT22;20119;48.334;16.206;2022-09-03T00:47:10;10.60;99.90
33811;DHT22;20119;48.334;16.206;2022-09-03T00:49:49;10.50;99.90
33811;DHT22;20119;48.334;16.206;2022-09-03T00:52:29;10.50;99.90
33811;DHT22;20119;48.334;16.206;2022-09-03T00:55:06;10.40;99.90
33811;DHT22;20119;48.334;16.206;2022-09-03T00:57:47;10.40;99.90
33811;DHT22;20119;48.334;16.206;2022-09-03T01:00:16;10.50;99.90
33811;DHT22;20119;48.334;16.206;2022-09-03T01:02:56;10.40;99.90
33811;DHT22;20119;48.334;16.206;2022-09-03T01:05:36;10.30;99.90
33811;DHT22;20119;48.334;16.206;2022-09-03T01:11:04;10.30;99.90
33811;DHT22;20119;48.334;16.206;2022-09-03T01:13:40;10.40;99.90
33811;DHT22;20119;48.334;16.206;2022-09-03T01:16:17;10.50;99.90
33811;DHT22;20119;48.334;16.206;2022-09-03T01:18:53;10.50;99.90
33811;DHT22;20119;48.334;16.206;2022-09-03T01:21:48;10.70;99.90
33811;DHT22;20119;48.334;16.206;2022-09-03T01:24:44;10.70;99.90
33811;DHT22;20119;48.334;16.206;2022-09-03T01:27:24;10.70;99.90
33811;DHT22;20119;48.334;16.206;2022-09-03T01:30:03;10.70;99.90
33811;DHT22;20119;48.334;16.206;2022-09-03T01:32:41;10.70;99.90
33811;DHT22;20119;48.334;16.206;2022-09-03T01:35:16;10.70;99.90
33811;DHT22;20119;48.334;16.206;2022-09-03T01:38:00;10.60;99.90
33811;DHT22;20119;48.334;16.206;2022-09-03T01:40:36;10.60;99.90
33811;DHT22;20119;48.334;16.206;2022-09-03T01:43:23;10.50;99.90
33811;DHT22;20119;48.334;16.206;2022-09-03T01:46:03;10.40;99.90
33811;DHT22;20119;48.334;16.206;2022-09-03T01:48:42;10.40;99.90
33811;DHT22;20119;48.334;16.206;2022-09-03T01:51:17;10.40;99.90
33811;DHT22;20119;48.334;16.206;2022-09-03T01:54:02;10.50;99.90
33811;DHT22;20119;48.334;16.206;2022-09-03T01:56:42;10.40;99.90
33811;DHT22;20119;48.334;16.206;2022-09-03T01:59:17;10.60;99.90
33811;DHT22;20119;48.334;16.206;2022-09-03T02:01:52;10.40;99.90
33811;DHT22;20119;48.334;16.206;2022-09-03T02:04:23;10.30;99.90
33811;DHT22;20119;48.334;16.206;2022-09-03T02:06:52;10.30;99.90
33811;DHT22;20119;48.334;16.206;2022-09-03T02:09:20;10.30;99.90
33811;DHT22;20119;48.334;16.206;2022-09-03T02:11:52;10.30;99.90
33811;DHT22;20119;48.334;16.206;2022-09-03T02:14:25;10.20;99.90
33811;DHT22;20119;48.334;16.206;2022-09-03T02:16:57;10.30;99.90
33811;DHT22;20119;48.334;16.206;2022-09-03T02:19:27;10.40;99.90
33811;DHT22;20119;48.334;16.206;2022-09-03T02:21:56;10.40;99.90
33811;DHT22;20119;48.334;16.206;2022-09-03T02:24:25;10.30;99.90
33811;DHT22;20119;48.334;16.206;2022-09-03T02:26:54;10.30;99.90
33811;DHT22;20119;48.334;16.206;2022-09-03T02:29:21;10.40;99.90
33811;DHT22;20119;48.334;16.206;2022-09-03T02:31:50;10.30;99.90
33811;DHT22;20119;48.334;16.206;2022-09-03T02:34:18;10.30;99.90
33811;DHT22;20119;48.334;16.206;2022-09-03T02:36:46;10.30;99.90
33811;DHT22;20119;48.334;16.206;2022-09-03T02:39:15;10.30;99.90
33811;DHT22;20119;48.334;16.206;2022-09-03T02:41:43;10.30;99.90
33811;DHT22;20119;48.334;16.206;2022-09-03T02:44:14;10.50;99.90
33811;DHT22;20119;48.334;16.206;2022-09-03T02:46:52;10.30;99.90
33811;DHT22;20119;48.334;16.206;2022-09-03T02:49:22;10.20;99.90
33811;DHT22;20119;48.334;16.206;2022-09-03T02:51:49;10.20;99.90
33811;DHT22;20119;48.334;16.206;2022-09-03T02:54:17;10.20;99.90
33811;DHT22;20119;48.334;16.206;2022-09-03T02:56:44;10.30;99.90
33811;DHT22;20119;48.334;16.206;2022-09-03T02:59:14;10.30;99.90
33811;DHT22;20119;48.334;16.206;2022-09-03T03:01:42;10.30;99.90
33811;DHT22;20119;48.334;16.206;2022-09-03T03:04:10;10.20;99.90
33811;DHT22;20119;48.334;16.206;2022-09-03T03:06:39;10.20;99.90
33811;DHT22;20119;48.334;16.206;2022-09-03T03:09:06;10.20;99.90
33811;DHT22;20119;48.334;16.206;2022-09-03T03:11:35;10.20;99.90
33811;DHT22;20119;48.334;16.206;2022-09-03T03:14:04;10.20;99.90
33811;DHT22;20119;48.334;16.206;2022-09-03T03:16:31;10.30;99.90
33811;DHT22;20119;48.334;16.206;2022-09-03T03:18:59;10.20;99.90
33811;DHT22;20119;48.334;16.206;2022-09-03T03:21:27;10.10;99.90
33811;DHT22;20119;48.334;16.206;2022-09-03T03:23:57;10.10;99.90
33811;DHT22;20119;48.334;16.206;2022-09-03T03:26:24;10.00;99.90
33811;DHT22;20119;48.334;16.206;2022-09-03T03:28:56;10.10;99.90
33811;DHT22;20119;48.334;16.206;2022-09-03T03:31:24;10.00;99.90
33811;DHT22;20119;48.334;16.206;2022-09-03T03:33:53;10.00;99.90
33811;DHT22;20119;48.334;16.206;2022-09-03T03:36:23;10.00;99.90
33811;DHT22;20119;48.334;16.206;2022-09-03T03:38:52;9.90;99.90
33811;DHT22;20119;48.334;16.206;2022-09-03T03:41:23;9.90;99.90
33811;DHT22;20119;48.334;16.206;2022-09-03T03:43:51;9.90;99.90
33811;DHT22;20119;48.334;16.206;2022-09-03T03:46:19;10.00;99.90
33811;DHT22;20119;48.334;16.206;2022-09-03T03:48:48;9.90;99.90
33811;DHT22;20119;48.334;16.206;2022-09-03T03:51:16;9.90;99.90
33811;DHT22;20119;48.334;16.206;2022-09-03T03:53:45;9.80;99.90
33811;DHT22;20119;48.334;16.206;2022-09-03T03:56:14;9.80;99.90
33811;DHT22;20119;48.334;16.206;2022-09-03T03:58:43;9.80;99.90
33811;DHT22;20119;48.334;16.206;2022-09-03T04:01:11;9.70;99.90
33811;DHT22;20119;48.334;16.206;2022-09-03T04:03:39;9.70;99.90
33811;DHT22;20119;48.334;16.206;2022-09-03T04:06:07;9.60;99.90
33811;DHT22;20119;48.334;16.206;2022-09-03T04:08:37;9.50;99.90
33811;DHT22;20119;48.334;16.206;2022-09-03T04:11:06;9.50;99.90
33811;DHT22;20119;48.334;16.206;2022-09-03T04:13:36;9.50;99.90
33811;DHT22;20119;48.334;16.206;2022-09-03T04:16:07;9.40;99.90
33811;DHT22;20119;48.334;16.206;2022-09-03T04:18:35;9.40;99.90
33811;DHT22;20119;48.334;16.206;2022-09-03T04:21:05;9.40;99.90
33811;DHT22;20119;48.334;16.206;2022-09-03T04:23:34;9.40;99.90
33811;DHT22;20119;48.334;16.206;2022-09-03T04:26:01;9.30;99.90
33811;DHT22;20119;48.334;16.206;2022-09-03T04:28:29;9.40;99.90
33811;DHT22;20119;48.334;16.206;2022-09-03T04:31:00;9.30;99.90
33811;DHT22;20119;48.334;16.206;2022-09-03T04:33:30;9.20;99.90
33811;DHT22;20119;48.334;16.206;2022-09-03T04:36:03;9.30;99.90
33811;DHT22;20119;48.334;16.206;2022-09-03T04:38:31;9.30;99.90
33811;DHT22;20119;48.334;16.206;2022-09-03T04:40:58;9.30;99.90
33811;DHT22;20119;48.334;16.206;2022-09-03T04:43:27;9.30;99.90
33811;DHT22;20119;48.334;16.206;2022-09-03T04:45:56;9.40;99.90
33811;DHT22;20119;48.334;16.206;2022-09-03T04:48:24;9.40;99.90
33811;DHT22;20119;48.334;16.206;2022-09-03T04:50:53;9.50;99.90
33811;DHT22;20119;48.334;16.206;2022-09-03T04:53:21;9.60;99.90
33811;DHT22;20119;48.334;16.206;2022-09-03T04:55:48;9.80;99.90
33811;DHT22;20119;48.334;16.206;2022-09-03T04:58:16;10.00;99.90
33811;DHT22;20119;48.334;16.206;2022-09-03T05:00:43;10.40;99.90
33811;DHT22;20119;48.334;16.206;2022-09-03T05:03:11;10.90;99.90
33811;DHT22;20119;48.334;16.206;2022-09-03T05:05:38;11.20;99.90
33811;DHT22;20119;48.334;16.206;2022-09-03T05:08:07;11.60;99.90
33811;DHT22;20119;48.334;16.206;2022-09-03T05:10:34;11.90;99.90
33811;DHT22;20119;48.334;16.206;2022-09-03T05:13:03;12.10;99.90
33811;DHT22;20119;48.334;16.206;2022-09-03T05:15:32;12.90;99.90
33811;DHT22;20119;48.334;16.206;2022-09-03T05:17:59;13.40;99.90
33811;DHT22;20119;48.334;16.206;2022-09-03T05:20:28;14.10;99.90
33811;DHT22;20119;48.334;16.206;2022-09-03T05:22:56;14.20;99.90
33811;DHT22;20119;48.334;16.206;2022-09-03T05:25:25;14.20;99.90
33811;DHT22;20119;48.334;16.206;2022-09-03T05:27:52;14.20;99.90
33811;DHT22;20119;48.334;16.206;2022-09-03T05:30:19;14.60;99.90
33811;DHT22;20119;48.334;16.206;2022-09-03T05:32:48;14.90;99.90
33811;DHT22;20119;48.334;16.206;2022-09-03T05:35:16;14.90;99.90
33811;DHT22;20119;48.334;16.206;2022-09-03T05:37:44;15.20;99.90
33811;DHT22;20119;48.334;16.206;2022-09-03T05:40:12;15.30;99.90
33811;DHT22;20119;48.334;16.206;2022-09-03T05:42:41;15.60;99.90
33811;DHT22;20119;48.334;16.206;2022-09-03T05:45:09;16.00;99.90
33811;DHT22;20119;48.334;16.206;2022-09-03T05:47:37;16.20;99.90
33811;DHT22;20119;48.334;16.206;2022-09-03T05:50:06;16.30;99.90
33811;DHT22;20119;48.334;16.206;2022-09-03T05:52:35;16.40;99.90
33811;DHT22;20119;48.334;16.206;2022-09-03T05:55:03;16.30;99.90
33811;DHT22;20119;48.334;16.206;2022-09-03T05:57:30;16.30;99.90
33811;DHT22;20119;48.334;16.206;2022-09-03T05:59:59;16.40;99.90
33811;DHT22;20119;48.334;16.206;2022-09-03T06:02:27;16.60;99.90
33811;DHT22;20119;48.334;16.206;2022-09-03T06:04:54;16.80;99.90
33811;DHT22;20119;48.334;16.206;2022-09-03T06:07:22;16.90;99.90
33811;DHT22;20119;48.334;16.206;2022-09-03T06:09:50;17.20;99.90
33811;DHT22;20119;48.334;16.206;2022-09-03T06:12:18;18.20;99.90
33811;DHT22;20119;48.334;16.206;2022-09-03T06:14:46;18.10;99.90
33811;DHT22;20119;48.334;16.206;2022-09-03T06:17:15;17.80;99.90
33811;DHT22;20119;48.334;16.206;2022-09-03T06:19:42;17.90;99.90
33811;DHT22;20119;48.334;16.206;2022-09-03T06:22:09;17.80;99.90
33811;DHT22;20119;48.334;16.206;2022-09-03T06:24:36;17.60;99.90
33811;DHT22;20119;48.334;16.206;2022-09-03T06:27:03;17.70;99.90
33811;DHT22;20119;48.334;16.206;2022-09-03T06:29:31;17.80;99.90
33811;DHT22;20119;48.334;16.206;2022-09-03T06:32:01;18.10;99.90
33811;DHT22;20119;48.334;16.206;2022-09-03T06:34:31;18.30;99.90
33811;DHT22;20119;48.334;16.206;2022-09-03T06:36:58;18.60;99.90
33811;DHT22;20119;48.334;16.206;2022-09-03T06:39:26;18.70;99.90
33811;DHT22;20119;48.334;16.206;2022-09-03T06:41:53;18.50;99.90
33811;DHT22;20119;48.334;16.206;2022-09-03T06:44:20;18.90;99.90
33811;DHT22;20119;48.334;16.206;2022-09-03T06:46:48;18.80;99.90
33811;DHT22;20119;48.334;16.206;2022-09-03T06:49:18;19.30;99.90
33811;DHT22;20119;48.334;16.206;2022-09-03T06:51:47;19.60;99.90
33811;DHT22;20119;48.334;16.206;2022-09-03T06:54:15;19.50;99.90
33811;DHT22;20119;48.334;16.206;2022-09-03T06:56:42;19.70;99.90
33811;DHT22;20119;48.334;16.206;2022-09-03T06:59:11;20.40;99.90
33811;DHT22;20119;48.334;16.206;2022-09-03T07:01:38;20.10;99.90
33811;DHT22;20119;48.334;16.206;2022-09-03T07:04:07;20.10;99.90
33811;DHT22;20119;48.334;16.206;2022-09-03T07:06:36;20.70;99.90
33811;DHT22;20119;48.334;16.206;2022-09-03T07:09:06;21.00;99.90
33811;DHT22;20119;48.334;16.206;2022-09-03T07:11:34;20.40;99.90
33811;DHT22;20119;48.334;16.206;2022-09-03T07:14:02;20.90;99.90
33811;DHT22;20119;48.334;16.206;2022-09-03T07:16:32;22.30;99.90
33811;DHT22;20119;48.334;16.206;2022-09-03T07:19:00;21.20;99.90
33811;DHT22;20119;48.334;16.206;2022-09-03T07:21:29;20.40;99.90
33811;DHT22;20119;48.334;16.206;2022-09-03T07:23:58;20.30;99.90
33811;DHT22;20119;48.334;16.206;2022-09-03T07:26:30;20.80;99.90
33811;DHT22;20119;48.334;16.206;2022-09-03T07:28:59;22.00;99.90
33811;DHT22;20119;48.334;16.206;2022-09-03T07:31:27;21.30;99.90
33811;DHT22;20119;48.334;16.206;2022-09-03T07:33:56;21.00;99.90
33811;DHT22;20119;48.334;16.206;2022-09-03T07:36:26;20.80;99.90
33811;DHT22;20119;48.334;16.206;2022-09-03T07:38:54;20.80;99.90
33811;DHT22;20119;48.334;16.206;2022-09-03T07:41:23;22.40;99.90
33811;DHT22;20119;48.334;16.206;2022-09-03T07:43:53;23.90;99.90
33811;DHT22;20119;48.334;16.206;2022-09-03T07:46:21;23.70;99.90
33811;DHT22;20119;48.334;16.206;2022-09-03T07:48:50;22.30;99.90
33811;DHT22;20119;48.334;16.206;2022-09-03T07:51:20;21.90;99.90
33811;DHT22;20119;48.334;16.206;2022-09-03T07:53:48;21.90;99.90
33811;DHT22;20119;48.334;16.206;2022-09-03T07:56:18;22.90;99.90
33811;DHT22;20119;48.334;16.206;2022-09-03T07:58:46;23.00;99.90
33811;DHT22;20119;48.334;16.206;2022-09-03T08:01:17;24.20;99.90
33811;DHT22;20119;48.334;16.206;2022-09-03T08:03:46;22.70;99.90
33811;DHT22;20119;48.334;16.206;2022-09-03T08:06:15;24.20;99.90
33811;DHT22;20119;48.334;16.206;2022-09-03T08:08:44;24.50;99.90
33811;DHT22;20119;48.334;16.206;2022-09-03T08:11:12;22.90;99.90
33811;DHT22;20119;48.334;16.206;2022-09-03T08:13:40;23.00;99.90
33811;DHT22;20119;48.334;16.206;2022-09-03T08:16:08;24.40;99.90
33811;DHT22;20119;48.334;16.206;2022-09-03T08:18:37;25.20;99.90
33811;DHT22;20119;48.334;16.206;2022-09-03T08:21:05;26.20;99.90
33811;DHT22;20119;48.334;16.206;2022-09-03T08:23:36;25.80;99.90
33811;DHT22;20119;48.334;16.206;2022-09-03T08:26:03;26.00;99.90
33811;DHT22;20119;48.334;16.206;2022-09-03T08:28:32;26.10;99.90
33811;DHT22;20119;48.334;16.206;2022-09-03T08:31:04;26.10;99.90
33811;DHT22;20119;48.334;16.206;2022-09-03T08:33:32;25.50;99.90
33811;DHT22;20119;48.334;16.206;2022-09-03T08:36:08;25.30;99.90
33811;DHT22;20119;48.334;16.206;2022-09-03T08:38:38;26.10;99.90
33811;DHT22;20119;48.334;16.206;2022-09-03T08:41:11;25.60;99.90
33811;DHT22;20119;48.334;16.206;2022-09-03T08:43:55;24.80;99.90
33811;DHT22;20119;48.334;16.206;2022-09-03T08:46:33;25.30;99.90
33811;DHT22;20119;48.334;16.206;2022-09-03T08:49:03;25.30;99.90
33811;DHT22;20119;48.334;16.206;2022-09-03T08:51:32;24.80;99.90
33811;DHT22;20119;48.334;16.206;2022-09-03T08:54:05;25.10;99.90
33811;DHT22;20119;48.334;16.206;2022-09-03T08:56:35;26.20;99.90
33811;DHT22;20119;48.334;16.206;2022-09-03T08:59:04;26.60;99.90
33811;DHT22;20119;48.334;16.206;2022-09-03T09:01:39;27.40;99.90
33811;DHT22;20119;48.334;16.206;2022-09-03T09:04:14;27.70;99.90
33811;DHT22;20119;48.334;16.206;2022-09-03T09:06:51;27.40;99.90
33811;DHT22;20119;48.334;16.206;2022-09-03T09:09:26;26.10;99.90
33811;DHT22;20119;48.334;16.206;2022-09-03T09:12:09;25.90;99.90
33811;DHT22;20119;48.334;16.206;2022-09-03T09:14:44;25.80;99.90
33811;DHT22;20119;48.334;16.206;2022-09-03T09:17:26;25.30;99.90
33811;DHT22;20119;48.334;16.206;2022-09-03T09:20:04;25.90;99.90
33811;DHT22;20119;48.334;16.206;2022-09-03T09:22:37;26.20;99.90
33811;DHT22;20119;48.334;16.206;2022-09-03T09:25:11;26.10;99.90
33811;DHT22;20119;48.334;16.206;2022-09-03T09:27:47;25.70;99.90
33811;DHT22;20119;48.334;16.206;2022-09-03T09:30:17;25.50;99.90
33811;DHT22;20119;48.334;16.206;2022-09-03T09:32:45;24.80;99.90
33811;DHT22;20119;48.334;16.206;2022-09-03T09:35:14;24.40;99.90
33811;DHT22;20119;48.334;16.206;2022-09-03T09:37:49;24.00;99.90
33811;DHT22;20119;48.334;16.206;2022-09-03T09:40:29;23.90;99.90
33811;DHT22;20119;48.334;16.206;2022-09-03T09:43:10;23.90;99.90
33811;DHT22;20119;48.334;16.206;2022-09-03T09:45:38;23.90;99.90
33811;DHT22;20119;48.334;16.206;2022-09-03T09:48:13;23.80;99.90
33811;DHT22;20119;48.334;16.206;2022-09-03T09:50:42;23.70;99.90
33811;DHT22;20119;48.334;16.206;2022-09-03T09:53:12;23.60;99.90
33811;DHT22;20119;48.334;16.206;2022-09-03T09:55:53;23.90;99.90
33811;DHT22;20119;48.334;16.206;2022-09-03T09:58:23;23.90;99.90
33811;DHT22;20119;48.334;16.206;2022-09-03T10:01:00;23.70;99.90
33811;DHT22;20119;48.334;16.206;2022-09-03T10:03:31;23.70;99.90
33811;DHT22;20119;48.334;16.206;2022-09-03T10:06:07;23.50;99.90
33811;DHT22;20119;48.334;16.206;2022-09-03T10:09:05;23.70;99.90
33811;DHT22;20119;48.334;16.206;2022-09-03T10:11:33;23.90;99.90
33811;DHT22;20119;48.334;16.206;2022-09-03T10:14:05;23.60;99.90
33811;DHT22;20119;48.334;16.206;2022-09-03T10:16:39;23.20;99.90
33811;DHT22;20119;48.334;16.206;2022-09-03T10:19:17;23.50;99.90
33811;DHT22;20119;48.334;16.206;2022-09-03T10:21:50;23.70;99.90
33811;DHT22;20119;48.334;16.206;2022-09-03T10:24:47;23.20;99.90
33811;DHT22;20119;48.334;16.206;2022-09-03T10:27:17;23.40;99.90
33811;DHT22;20119;48.334;16.206;2022-09-03T10:29:46;23.70;99.90
33811;DHT22;20119;48.334;16.206;2022-09-03T10:32:29;23.90;99.90
33811;DHT22;20119;48.334;16.206;2022-09-03T10:35:04;24.10;99.90
33811;DHT22;20119;48.334;16.206;2022-09-03T10:37:39;24.30;99.90
33811;DHT22;20119;48.334;16.206;2022-09-03T10:40:18;24.10;99.90
33811;DHT22;20119;48.334;16.206;2022-09-03T10:43:14;23.90;99.90
33811;DHT22;20119;48.334;16.206;2022-09-03T10:45:55;23.60;99.90
33811;DHT22;20119;48.334;16.206;2022-09-03T10:48:45;23.80;99.90
33811;DHT22;20119;48.334;16.206;2022-09-03T10:51:18;23.70;99.90
33811;DHT22;20119;48.334;16.206;2022-09-03T10:53:59;23.90;99.90
33811;DHT22;20119;48.334;16.206;2022-09-03T10:56:35;23.60;99.90
33811;DHT22;20119;48.334;16.206;2022-09-03T10:59:27;23.70;99.90
33811;DHT22;20119;48.334;16.206;2022-09-03T11:02:12;23.50;99.90
33811;DHT22;20119;48.334;16.206;2022-09-03T11:04:47;23.70;99.90
33811;DHT22;20119;48.334;16.206;2022-09-03T11:07:20;23.80;99.90
33811;DHT22;20119;48.334;16.206;2022-09-03T11:09:50;23.60;99.90
33811;DHT22;20119;48.334;16.206;2022-09-03T11:12:21;23.80;99.90
33811;DHT22;20119;48.334;16.206;2022-09-03T11:14:55;23.90;99.90
33811;DHT22;20119;48.334;16.206;2022-09-03T11:17:31;23.80;99.90
33811;DHT22;20119;48.334;16.206;2022-09-03T11:20:09;23.90;99.90
33811;DHT22;20119;48.334;16.206;2022-09-03T11:22:38;24.00;99.90
33811;DHT22;20119;48.334;16.206;2022-09-03T11:25:09;24.30;99.90
33811;DHT22;20119;48.334;16.206;2022-09-03T11:27:51;24.50;99.90
33811;DHT22;20119;48.334;16.206;2022-09-03T11:30:23;24.80;99.90
33811;DHT22;20119;48.334;16.206;2022-09-03T11:32:55;24.90;99.90
33811;DHT22;20119;48.334;16.206;2022-09-03T11:35:35;25.00;99.90
33811;DHT22;20119;48.334;16.206;2022-09-03T11:38:04;25.10;99.90
33811;DHT22;20119;48.334;16.206;2022-09-03T11:40:33;25.10;99.90
33811;DHT22;20119;48.334;16.206;2022-09-03T11:43:12;25.30;99.90
33811;DHT22;20119;48.334;16.206;2022-09-03T11:46:02;25.10;99.90
33811;DHT22;20119;48.334;16.206;2022-09-03T11:48:35;25.20;99.90
33811;DHT22;20119;48.334;16.206;2022-09-03T11:51:03;25.30;99.90
33811;DHT22;20119;48.334;16.206;2022-09-03T11:53:35;25.00;99.90
33811;DHT22;20119;48.334;16.206;2022-09-03T11:56:17;24.90;99.90
33811;DHT22;20119;48.334;16.206;2022-09-03T11:58:46;24.90;99.90
33811;DHT22;20119;48.334;16.206;2022-09-03T12:01:26;25.20;99.90
33811;DHT22;20119;48.334;16.206;2022-09-03T12:03:59;25.00;99.90
33811;DHT22;20119;48.334;16.206;2022-09-03T12:06:48;25.30;99.90
33811;DHT22;20119;48.334;16.206;2022-09-03T12:09:36;25.50;99.90
33811;DHT22;20119;48.334;16.206;2022-09-03T12:12:14;25.30;99.90
33811;DHT22;20119;48.334;16.206;2022-09-03T12:14:53;25.40;99.90
33811;DHT22;20119;48.334;16.206;2022-09-03T12:17:29;25.50;99.90
33811;DHT22;20119;48.334;16.206;2022-09-03T12:19:58;25.50;99.90
33811;DHT22;20119;48.334;16.206;2022-09-03T12:22:28;25.40;99.90
33811;DHT22;20119;48.334;16.206;2022-09-03T12:25:06;25.40;99.90
33811;DHT22;20119;48.334;16.206;2022-09-03T12:27:35;25.30;99.90
33811;DHT22;20119;48.334;16.206;2022-09-03T12:30:14;25.50;99.90
33811;DHT22;20119;48.334;16.206;2022-09-03T12:32:42;25.30;99.90
33811;DHT22;20119;48.334;16.206;2022-09-03T12:35:13;25.30;99.90
33811;DHT22;20119;48.334;16.206;2022-09-03T12:37:42;25.40;99.90
33811;DHT22;20119;48.334;16.206;2022-09-03T12:40:20;25.70;99.90
33811;DHT22;20119;48.334;16.206;2022-09-03T12:42:47;25.70;99.90
33811;DHT22;20119;48.334;16.206;2022-09-03T12:45:19;25.90;99.90
33811;DHT22;20119;48.334;16.206;2022-09-03T12:47:46;26.10;99.90
33811;DHT22;20119;48.334;16.206;2022-09-03T12:50:15;26.20;99.90
33811;DHT22;20119;48.334;16.206;2022-09-03T12:52:44;25.80;99.90
33811;DHT22;20119;48.334;16.206;2022-09-03T12:55:24;25.50;99.90
33811;DHT22;20119;48.334;16.206;2022-09-03T12:57:53;25.40;99.90
33811;DHT22;20119;48.334;16.206;2022-09-03T13:00:23;25.50;99.90
33811;DHT22;20119;48.334;16.206;2022-09-03T13:02:55;25.40;99.90
33811;DHT22;20119;48.334;16.206;2022-09-03T13:05:32;25.00;99.90
33811;DHT22;20119;48.334;16.206;2022-09-03T13:08:02;24.90;99.90
33811;DHT22;20119;48.334;16.206;2022-09-03T13:10:35;25.00;99.90
33811;DHT22;20119;48.334;16.206;2022-09-03T13:13:18;25.30;99.90
33811;DHT22;20119;48.334;16.206;2022-09-03T13:16:04;25.50;99.90
33811;DHT22;20119;48.334;16.206;2022-09-03T13:18:39;25.60;99.90
33811;DHT22;20119;48.334;16.206;2022-09-03T13:21:16;25.80;99.90
33811;DHT22;20119;48.334;16.206;2022-09-03T13:23:55;25.80;99.90
33811;DHT22;20119;48.334;16.206;2022-09-03T13:26:32;25.70;99.90
33811;DHT22;20119;48.334;16.206;2022-09-03T13:29:24;25.70;99.90
33811;DHT22;20119;48.334;16.206;2022-09-03T13:32:02;25.50;99.90
33811;DHT22;20119;48.334;16.206;2022-09-03T13:34:36;25.10;99.90
33811;DHT22;20119;48.334;16.206;2022-09-03T13:37:15;25.20;99.90
33811;DHT22;20119;48.334;16.206;2022-09-03T13:39:48;24.90;99.90
33811;DHT22;20119;48.334;16.206;2022-09-03T13:42:23;25.00;99.90
33811;DHT22;20119;48.334;16.206;2022-09-03T13:44:57;25.20;99.90
33811;DHT22;20119;48.334;16.206;2022-09-03T13:47:31;25.20;99.90
33811;DHT22;20119;48.334;16.206;2022-09-03T13:50:06;25.20;99.90
33811;DHT22;20119;48.334;16.206;2022-09-03T13:52:50;25.00;99.90
33811;DHT22;20119;48.334;16.206;2022-09-03T13:55:26;24.90;99.90
33811;DHT22;20119;48.334;16.206;2022-09-03T13:57:56;25.00;99.90
33811;DHT22;20119;48.334;16.206;2022-09-03T14:00:33;25.10;99.90
33811;DHT22;20119;48.334;16.206;2022-09-03T14:03:10;25.30;99.90
33811;DHT22;20119;48.334;16.206;2022-09-03T14:05:48;25.40;99.90
33811;DHT22;20119;48.334;16.206;2022-09-03T14:08:24;25.20;99.90
33811;DHT22;20119;48.334;16.206;2022-09-03T14:10:59;25.50;99.90
33811;DHT22;20119;48.334;16.206;2022-09-03T14:13:38;25.70;99.90
33811;DHT22;20119;48.334;16.206;2022-09-03T14:16:19;25.80;99.90
33811;DHT22;20119;48.334;16.206;2022-09-03T14:18:57;25.60;99.90
33811;DHT22;20119;48.334;16.206;2022-09-03T14:21:29;25.30;99.90
33811;DHT22;20119;48.334;16.206;2022-09-03T14:24:05;25.50;99.90
33811;DHT22;20119;48.334;16.206;2022-09-03T14:26:34;25.50;99.90
33811;DHT22;20119;48.334;16.206;2022-09-03T14:29:06;25.50;99.90
33811;DHT22;20119;48.334;16.206;2022-09-03T14:31:50;25.50;99.90
33811;DHT22;20119;48.334;16.206;2022-09-03T14:34:32;25.60;99.90
33811;DHT22;20119;48.334;16.206;2022-09-03T14:37:08;25.50;99.90
33811;DHT22;20119;48.334;16.206;2022-09-03T14:39:47;25.40;99.90
33811;DHT22;20119;48.334;16.206;2022-09-03T14:42:40;25.40;99.90
33811;DHT22;20119;48.334;16.206;2022-09-03T14:48:34;25.70;99.90
33811;DHT22;20119;48.334;16.206;2022-09-03T14:51:16;25.80;99.90
33811;DHT22;20119;48.334;16.206;2022-09-03T14:54:09;25.70;99.90
33811;DHT22;20119;48.334;16.206;2022-09-03T14:56:48;25.50;99.90
33811;DHT22;20119;48.334;16.206;2022-09-03T14:59:36;25.40;99.90
33811;DHT22;20119;48.334;16.206;2022-09-03T15:05:14;25.30;99.90
33811;DHT22;20119;48.334;16.206;2022-09-03T15:07:49;25.20;99.90
33811;DHT22;20119;48.334;16.206;2022-09-03T15:10:25;25.10;99.90
33811;DHT22;20119;48.334;16.206;2022-09-03T15:12:58;25.00;99.90
33811;DHT22;20119;48.334;16.206;2022-09-03T15:15:32;24.90;99.90
33811;DHT22;20119;48.334;16.206;2022-09-03T15:18:11;24.90;99.90
33811;DHT22;20119;48.334;16.206;2022-09-03T15:20:48;24.80;99.90
33811;DHT22;20119;48.334;16.206;2022-09-03T15:23:47;24.80;99.90
33811;DHT22;20119;48.334;16.206;2022-09-03T15:26:46;24.90;99.90
33811;DHT22;20119;48.334;16.206;2022-09-03T15:29:46;24.80;99.90
33811;DHT22;20119;48.334;16.206;2022-09-03T15:32:23;24.70;99.90
33811;DHT22;20119;48.334;16.206;2022-09-03T15:35:06;24.60;99.90
33811;DHT22;20119;48.334;16.206;2022-09-03T15:37:41;24.60;99.90
33811;DHT22;20119;48.334;16.206;2022-09-03T15:40:24;24.60;99.90
33811;DHT22;20119;48.334;16.206;2022-09-03T15:42:59;24.70;99.90
33811;DHT22;20119;48.334;16.206;2022-09-03T15:45:35;24.60;99.90
33811;DHT22;20119;48.334;16.206;2022-09-03T15:48:19;24.60;99.90
33811;DHT22;20119;48.334;16.206;2022-09-03T15:50:52;24.60;99.90
33811;DHT22;20119;48.334;16.206;2022-09-03T15:53:30;24.40;99.90
33811;DHT22;20119;48.334;16.206;2022-09-03T15:56:17;24.50;99.90
33811;DHT22;20119;48.334;16.206;2022-09-03T15:58:56;24.50;99.90
33811;DHT22;20119;48.334;16.206;2022-09-03T16:01:33;24.50;99.90
33811;DHT22;20119;48.334;16.206;2022-09-03T16:04:18;24.50;99.90